Terminal Aerodrome Forecast
Issued by NWS Sioux Falls, SD

Home | Current Version | Previous Version | Text Only | Print | Product List | Glossary Off
Versions: 1 2 3 4 5 6 7 8 9 10 11 12 13 14 15 16 17 18 19 20 21 22 23 24 25 26 27 28 29 30

000
FTUS43 KFSD 071700 RRA
TAFSUX
TAF
KSUX 071742Z 0718/0818 25008KT P6SM SCT070 BKN250
     FM072300 34010KT P6SM BKN100
      TEMPO 0723/0803 3SM TSRA BKN040CB
     FM080300 33010KT P6SM BKN100
     FM080600 33006KT P6SM SCT040 SCT100
     FM081500 32016G24KT P6SM SCT045=

USA.gov is the U.S. government's official web portal to all federal, state and local government web resources and services.